LFKJ/AJA METAR and TAF weather

Enter ICAO airport designator
Station Type Date Time Source
LFKJ METAR 2019/02/17 07:30 UTC NOAA

LFKJ 170730Z AUTO 05007KT CAVOK 05/02 Q1030 NOSIG


Station Type Date Time Source
LFKJ Decoded METAR 2019/02/17 07:30 UTC NOAA

Ajaccio, France (LFKJ) 41-55N 008-48E 9M
Feb 17, 2019 - 02:30 AM EST / 2019.02.17 0730 UTC
Wind: from the NE (050 degrees) at 8 MPH (7 KT):0
Visibility: greater than 7 mile(s):0
Temperature: 41 F (5 C)
Dew Point: 35 F (2 C)
Relative Humidity: 80%
Pressure (altimeter): 30.42 in. Hg (1030 hPa)
ob: LFKJ 170730Z AUTO 05007KT CAVOK 05/02 Q1030 NOSIG
cycle: 7

Station Type Date Time Source
LFKJ TAF 2019/02/17 03:42 UTC NOAA

TAF LFKJ 170200Z 1703/1803 04004KT CAVOK
TEMPO 1703/1707 BKN015
BECMG 1708/1711 24008KT
BECMG 1718/1721 04004KT


Example: see airport list